createdAt,value
2022-08-03T00:02:17.865Z,17.60
2022-08-03T00:04:46.580Z,17.70
2022-08-03T00:07:14.632Z,17.70
2022-08-03T00:09:42.519Z,17.60
2022-08-03T00:12:10.477Z,17.60
2022-08-03T00:14:39.750Z,17.60
2022-08-03T00:17:07.832Z,17.60
2022-08-03T00:19:35.754Z,17.60
2022-08-03T00:22:03.699Z,17.50
2022-08-03T00:24:32.119Z,17.50
2022-08-03T00:26:59.944Z,17.50
2022-08-03T00:29:28.010Z,17.50
2022-08-03T00:32:00.245Z,17.50
2022-08-03T00:34:36.408Z,17.30
2022-08-03T00:37:16.705Z,17.40
2022-08-03T00:39:46.182Z,17.30
2022-08-03T00:42:14.900Z,17.30
2022-08-03T00:44:43.719Z,17.40
2022-08-03T00:47:13.248Z,17.50
2022-08-03T00:49:42.026Z,17.40
2022-08-03T00:52:10.661Z,17.40
2022-08-03T00:54:39.370Z,17.30
2022-08-03T00:57:08.129Z,17.30
2022-08-03T00:59:38.067Z,17.30
2022-08-03T01:02:05.966Z,17.30
2022-08-03T01:04:35.117Z,17.20
2022-08-03T01:07:10.693Z,17.20
2022-08-03T01:09:46.999Z,17.20
2022-08-03T01:12:23.223Z,17.10
2022-08-03T01:14:56.675Z,17.20
2022-08-03T01:17:30.161Z,17.20
2022-08-03T01:20:05.141Z,17.20
2022-08-03T01:22:53.111Z,17.10
2022-08-03T01:25:32.445Z,17.10
2022-08-03T01:28:24.983Z,17.00
2022-08-03T01:30:57.648Z,17.00
2022-08-03T01:33:29.239Z,16.90
2022-08-03T01:36:01.659Z,16.90
2022-08-03T01:38:34.006Z,16.90
2022-08-03T01:41:05.795Z,16.90
2022-08-03T01:43:55.119Z,16.90
2022-08-03T01:46:25.658Z,16.90
2022-08-03T01:48:55.083Z,16.90
2022-08-03T01:51:23.834Z,17.00
2022-08-03T01:54:13.767Z,16.90
2022-08-03T01:56:43.613Z,16.90
2022-08-03T01:59:13.519Z,16.90
2022-08-03T02:02:28.327Z,16.80
2022-08-03T02:04:32.521Z,16.80
2022-08-03T02:07:03.279Z,16.70
2022-08-03T02:09:32.950Z,16.80
2022-08-03T02:12:01.795Z,16.80
2022-08-03T02:14:30.207Z,16.70
2022-08-03T02:17:00.129Z,16.70
2022-08-03T02:19:35.287Z,16.70
2022-08-03T02:22:05.427Z,16.60
2022-08-03T02:24:33.538Z,16.60
2022-08-03T02:27:02.183Z,16.60
2022-08-03T02:29:39.444Z,16.60
2022-08-03T02:32:13.462Z,16.60
2022-08-03T02:34:43.742Z,16.60
2022-08-03T02:37:12.971Z,16.50
2022-08-03T02:39:43.164Z,16.50
2022-08-03T02:42:12.992Z,16.50
2022-08-03T02:44:47.519Z,16.50
2022-08-03T02:47:21.210Z,16.50
2022-08-03T02:49:52.204Z,16.50
2022-08-03T02:52:23.115Z,16.40
2022-08-03T02:54:54.286Z,16.40
2022-08-03T02:57:23.788Z,16.40
2022-08-03T02:59:53.636Z,16.40
2022-08-03T03:02:24.184Z,16.40
2022-08-03T03:05:50.596Z,16.30
2022-08-03T03:07:51.802Z,16.30
2022-08-03T03:10:21.594Z,16.20
2022-08-03T03:12:50.283Z,16.30
2022-08-03T03:15:18.849Z,16.30
2022-08-03T03:17:49.631Z,16.20
2022-08-03T03:20:29.455Z,16.20
2022-08-03T03:23:00.900Z,16.20
2022-08-03T03:25:29.807Z,16.20
2022-08-03T03:27:57.990Z,16.20
2022-08-03T03:30:26.742Z,16.10
2022-08-03T03:32:56.105Z,16.10
2022-08-03T03:35:24.158Z,16.10
2022-08-03T03:37:52.895Z,16.20
2022-08-03T03:40:21.157Z,16.10
2022-08-03T03:42:49.105Z,16.10
2022-08-03T03:45:17.248Z,16.20
2022-08-03T03:47:45.166Z,16.20
2022-08-03T03:50:16.601Z,16.20
2022-08-03T03:52:44.450Z,16.20
2022-08-03T03:55:17.221Z,16.20
2022-08-03T03:57:45.391Z,16.30
2022-08-03T04:00:15.373Z,16.20
2022-08-03T04:02:43.384Z,16.20
2022-08-03T04:05:45.551Z,16.10
2022-08-03T04:08:34.659Z,16.10
2022-08-03T04:11:11.291Z,16.10
2022-08-03T04:13:41.883Z,16.20
2022-08-03T04:16:13.139Z,16.10
2022-08-03T04:18:44.707Z,16.10
2022-08-03T04:21:15.691Z,16.10
2022-08-03T04:23:47.938Z,16.00
2022-08-03T04:26:20.708Z,16.00
2022-08-03T04:28:50.395Z,16.00
2022-08-03T04:31:21.419Z,16.00
2022-08-03T04:33:51.752Z,16.00
2022-08-03T04:36:22.919Z,16.00
2022-08-03T04:39:05.407Z,16.10
2022-08-03T04:42:07.373Z,16.10
2022-08-03T04:44:28.187Z,16.20
2022-08-03T04:46:58.011Z,16.20
2022-08-03T04:49:26.628Z,16.20
2022-08-03T04:51:54.675Z,16.30
2022-08-03T04:54:23.809Z,16.30
2022-08-03T04:56:51.747Z,16.50
2022-08-03T04:59:19.580Z,16.50
2022-08-03T05:01:47.494Z,16.60
2022-08-03T05:04:15.443Z,16.70
2022-08-03T05:06:47.934Z,16.90
2022-08-03T05:09:16.145Z,17.00
2022-08-03T05:12:06.110Z,17.10
2022-08-03T05:14:34.164Z,17.20
2022-08-03T05:17:01.975Z,17.30
2022-08-03T05:19:30.496Z,17.40
2022-08-03T05:21:58.370Z,17.50
2022-08-03T05:24:26.267Z,17.70
2022-08-03T05:26:54.758Z,17.80
2022-08-03T05:29:23.981Z,18.00
2022-08-03T05:31:51.790Z,18.00
2022-08-03T05:34:19.586Z,18.10
2022-08-03T05:36:47.403Z,18.20
2022-08-03T05:39:15.252Z,18.30
2022-08-03T05:41:43.073Z,18.40
2022-08-03T05:44:10.902Z,18.50
2022-08-03T05:46:40.083Z,18.70
2022-08-03T05:49:07.972Z,18.80
2022-08-03T05:51:37.404Z,18.80
2022-08-03T05:54:05.342Z,19.00
2022-08-03T05:56:33.275Z,19.10
2022-08-03T05:59:16.274Z,19.20
2022-08-03T06:01:50.302Z,19.40
2022-08-03T06:04:18.172Z,19.50
2022-08-03T06:06:46.008Z,19.70
2022-08-03T06:09:13.917Z,19.80
2022-08-03T06:11:42.083Z,19.90
2022-08-03T06:14:10.149Z,19.90
2022-08-03T06:16:38.017Z,20.00
2022-08-03T06:19:07.236Z,20.10
2022-08-03T06:21:35.037Z,20.20
2022-08-03T06:24:06.991Z,20.40
2022-08-03T06:26:35.568Z,20.50
2022-08-03T06:29:03.947Z,20.70
2022-08-03T06:31:33.814Z,20.80
2022-08-03T06:34:32.323Z,21.10
2022-08-03T06:36:58.596Z,21.10
2022-08-03T06:39:30.027Z,21.30
2022-08-03T06:41:58.118Z,21.50
2022-08-03T06:44:26.092Z,21.60
2022-08-03T06:46:53.949Z,21.70
2022-08-03T06:49:21.873Z,21.80
2022-08-03T06:52:04.955Z,22.00
2022-08-03T06:54:37.468Z,22.10
2022-08-03T06:57:06.294Z,22.10
2022-08-03T07:00:07.495Z,22.30
2022-08-03T07:02:22.040Z,22.40
2022-08-03T07:04:50.024Z,22.70
2022-08-03T07:07:19.156Z,22.70
2022-08-03T07:09:57.007Z,22.80
2022-08-03T07:12:26.679Z,22.90
2022-08-03T07:14:58.203Z,23.10
2022-08-03T07:17:28.483Z,23.20
2022-08-03T07:19:56.656Z,23.30
2022-08-03T07:22:24.527Z,23.40
2022-08-03T07:24:53.725Z,23.50
2022-08-03T07:27:21.821Z,23.60
2022-08-03T07:29:49.771Z,23.70
2022-08-03T07:32:17.861Z,23.80
2022-08-03T07:34:45.968Z,23.80
2022-08-03T07:37:13.799Z,24.00
2022-08-03T07:39:41.612Z,24.20
2022-08-03T07:42:10.920Z,24.30
2022-08-03T07:44:39.260Z,24.50
2022-08-03T07:47:07.154Z,24.40
2022-08-03T07:49:41.097Z,24.60
2022-08-03T07:52:28.217Z,24.70
2022-08-03T07:54:56.614Z,24.80
2022-08-03T07:57:25.814Z,24.90
2022-08-03T07:59:56.600Z,25.10
2022-08-03T08:02:29.378Z,25.10
2022-08-03T08:04:58.431Z,25.20
2022-08-03T08:07:28.881Z,25.30
2022-08-03T08:09:56.737Z,25.30
2022-08-03T08:12:25.901Z,25.50
2022-08-03T08:14:53.723Z,25.50
2022-08-03T08:17:21.611Z,25.60
2022-08-03T08:19:51.742Z,25.60
2022-08-03T08:22:30.095Z,25.80
2022-08-03T08:24:59.664Z,26.00
2022-08-03T08:28:22.361Z,26.10
2022-08-03T08:30:20.640Z,26.20
2022-08-03T08:32:49.014Z,26.30
2022-08-03T08:35:17.589Z,26.40
2022-08-03T08:37:50.996Z,26.50
2022-08-03T08:40:22.801Z,26.60
2022-08-03T08:42:58.416Z,26.50
2022-08-03T08:45:27.829Z,26.60
2022-08-03T08:48:01.635Z,26.60
2022-08-03T08:50:31.463Z,26.70
2022-08-03T08:53:03.603Z,26.80
2022-08-03T08:55:58.852Z,26.90
2022-08-03T08:58:23.275Z,26.90
2022-08-03T09:00:52.019Z,27.00
2022-08-03T09:03:25.245Z,27.20
2022-08-03T09:06:02.109Z,27.20
2022-08-03T09:08:30.583Z,27.30
2022-08-03T09:10:58.791Z,27.50
2022-08-03T09:13:29.019Z,27.50
2022-08-03T09:16:14.845Z,27.50
2022-08-03T09:18:44.138Z,27.50
2022-08-03T09:21:33.949Z,27.60
2022-08-03T09:24:06.269Z,27.80
2022-08-03T09:26:37.947Z,27.70
2022-08-03T09:29:14.463Z,27.70
2022-08-03T09:31:45.593Z,27.80
2022-08-03T09:34:14.864Z,28.00
2022-08-03T09:36:45.608Z,28.10
2022-08-03T09:39:14.745Z,28.20
2022-08-03T09:41:44.107Z,28.20
2022-08-03T09:44:24.288Z,28.20
2022-08-03T09:46:55.050Z,28.20
2022-08-03T09:49:23.386Z,28.30
2022-08-03T09:52:31.510Z,28.40
2022-08-03T09:54:39.938Z,28.40
2022-08-03T09:57:07.797Z,28.40
2022-08-03T09:59:39.132Z,28.50
2022-08-03T10:02:23.134Z,28.50
2022-08-03T10:04:52.774Z,28.60
2022-08-03T10:07:22.360Z,28.60
2022-08-03T10:10:31.019Z,28.70
2022-08-03T10:12:49.680Z,28.50
2022-08-03T10:16:21.865Z,28.70
2022-08-03T10:18:08.550Z,28.80
2022-08-03T10:20:42.239Z,28.90
2022-08-03T10:23:12.994Z,29.00
2022-08-03T10:25:43.707Z,28.90
2022-08-03T10:28:14.085Z,29.00
2022-08-03T10:30:48.491Z,29.00
2022-08-03T10:33:51.834Z,29.10
2022-08-03T10:36:08.879Z,29.20
2022-08-03T10:38:41.312Z,29.10
2022-08-03T10:41:09.823Z,29.20
2022-08-03T10:43:48.885Z,29.20
2022-08-03T10:46:20.613Z,29.20
2022-08-03T10:48:50.563Z,29.10
2022-08-03T10:51:18.569Z,29.10
2022-08-03T10:53:54.274Z,29.30
2022-08-03T10:57:08.771Z,29.20
2022-08-03T11:00:03.219Z,29.20
2022-08-03T11:03:04.423Z,29.10
2022-08-03T11:05:36.043Z,29.40
2022-08-03T11:08:31.566Z,29.50
2022-08-03T11:11:04.363Z,29.50
2022-08-03T11:13:33.853Z,29.60
2022-08-03T11:16:21.479Z,29.50
2022-08-03T11:18:58.173Z,29.40
2022-08-03T11:21:58.911Z,29.60
2022-08-03T11:25:02.690Z,29.50
2022-08-03T11:27:32.889Z,29.50
2022-08-03T11:30:03.712Z,29.60
2022-08-03T11:32:57.885Z,29.40
2022-08-03T11:35:27.495Z,29.40
2022-08-03T11:38:10.701Z,29.50
2022-08-03T11:40:44.243Z,29.50
2022-08-03T11:43:47.374Z,29.70
2022-08-03T11:46:29.467Z,29.80
2022-08-03T11:49:10.490Z,29.80
2022-08-03T11:51:40.177Z,29.80
2022-08-03T11:54:11.254Z,29.80
2022-08-03T11:56:46.787Z,29.70
2022-08-03T11:59:19.845Z,29.90
2022-08-03T12:01:48.872Z,29.90
2022-08-03T12:04:17.162Z,30.10
2022-08-03T12:06:59.768Z,30.20
2022-08-03T12:09:29.225Z,30.10
2022-08-03T12:12:00.280Z,30.10
2022-08-03T12:14:50.547Z,30.20
2022-08-03T12:17:17.645Z,30.10
2022-08-03T12:19:46.187Z,29.90
2022-08-03T12:22:15.746Z,30.00
2022-08-03T12:24:47.601Z,30.20
2022-08-03T12:27:26.054Z,30.20
2022-08-03T12:29:58.787Z,30.20
2022-08-03T12:32:27.715Z,30.10
2022-08-03T12:35:00.030Z,30.10
2022-08-03T12:37:28.483Z,30.20
2022-08-03T12:40:01.752Z,30.30
2022-08-03T12:42:32.308Z,30.30
2022-08-03T12:45:00.167Z,30.20
2022-08-03T12:47:28.042Z,30.20
2022-08-03T12:49:56.892Z,30.20
2022-08-03T12:52:27.128Z,30.40
2022-08-03T12:55:00.711Z,30.40
2022-08-03T12:57:42.158Z,30.40
2022-08-03T13:00:21.785Z,30.50
2022-08-03T13:03:39.796Z,30.50
2022-08-03T13:05:49.536Z,30.20
2022-08-03T13:08:21.631Z,30.30
2022-08-03T13:10:51.122Z,30.30
2022-08-03T13:13:20.621Z,30.50
2022-08-03T13:15:48.987Z,30.50
2022-08-03T13:18:17.256Z,30.50
2022-08-03T13:20:45.555Z,30.60
2022-08-03T13:23:16.183Z,30.50
2022-08-03T13:25:55.351Z,30.50
2022-08-03T13:28:24.241Z,30.60
2022-08-03T13:30:54.091Z,30.50
2022-08-03T13:33:21.927Z,30.50
2022-08-03T13:35:49.753Z,30.50
2022-08-03T13:38:17.631Z,30.40
2022-08-03T13:40:52.094Z,30.50
2022-08-03T13:43:20.637Z,30.40
2022-08-03T13:45:51.415Z,30.50
2022-08-03T13:48:37.238Z,30.50
2022-08-03T13:51:21.963Z,30.50
2022-08-03T13:53:51.208Z,30.60
2022-08-03T13:56:20.438Z,30.60
2022-08-03T13:58:48.303Z,30.60
2022-08-03T14:01:16.220Z,30.50
2022-08-03T14:03:44.051Z,30.50
2022-08-03T14:06:11.881Z,30.30
2022-08-03T14:08:39.771Z,30.30
2022-08-03T14:11:07.952Z,30.20
2022-08-03T14:13:37.082Z,30.30
2022-08-03T14:16:05.814Z,30.20
2022-08-03T14:18:37.914Z,30.10
2022-08-03T14:21:09.399Z,30.20
2022-08-03T14:23:38.508Z,30.30
2022-08-03T14:26:07.145Z,30.30
2022-08-03T14:28:35.152Z,30.30
2022-08-03T14:31:08.112Z,30.40
2022-08-03T14:33:43.939Z,30.40
2022-08-03T14:36:11.866Z,30.50
2022-08-03T14:38:39.704Z,30.50
2022-08-03T14:41:12.273Z,30.30
2022-08-03T14:44:01.472Z,30.20
2022-08-03T14:46:32.234Z,30.30
2022-08-03T14:50:32.767Z,30.20
2022-08-03T14:51:51.463Z,30.10
2022-08-03T14:54:21.657Z,29.90
2022-08-03T14:56:49.512Z,29.90
2022-08-03T14:59:17.334Z,29.90
2022-08-03T15:02:02.948Z,29.90
2022-08-03T15:04:37.061Z,29.90
2022-08-03T15:07:05.037Z,29.90
2022-08-03T15:09:33.111Z,29.80
2022-08-03T15:12:01.171Z,29.80
2022-08-03T15:14:33.172Z,29.80
2022-08-03T15:17:05.013Z,29.90
2022-08-03T15:20:01.680Z,29.70
2022-08-03T15:22:25.442Z,29.70
2022-08-03T15:25:02.891Z,29.70
2022-08-03T15:27:30.726Z,29.60
2022-08-03T15:30:08.114Z,29.60
2022-08-03T15:32:39.449Z,29.50
2022-08-03T15:35:07.725Z,29.60
2022-08-03T15:37:35.672Z,29.70
2022-08-03T15:40:03.947Z,29.80
2022-08-03T15:42:33.473Z,29.80
2022-08-03T15:45:01.380Z,29.90
2022-08-03T15:47:29.209Z,29.90
2022-08-03T15:49:58.329Z,29.80
2022-08-03T15:52:26.265Z,29.80
2022-08-03T15:54:54.147Z,29.80
2022-08-03T15:57:22.652Z,29.80
2022-08-03T15:59:50.855Z,29.80
2022-08-03T16:02:18.756Z,29.80
2022-08-03T16:04:46.599Z,29.80
2022-08-03T16:07:16.207Z,29.70
2022-08-03T16:09:44.402Z,29.70
2022-08-03T16:12:14.461Z,29.70
2022-08-03T16:14:52.473Z,29.60
2022-08-03T16:17:21.791Z,29.60
2022-08-03T16:19:50.030Z,29.60
2022-08-03T16:22:19.650Z,29.60
2022-08-03T16:24:49.980Z,29.50
2022-08-03T16:27:37.512Z,29.50
2022-08-03T16:30:06.910Z,29.50
2022-08-03T16:32:34.915Z,29.50
2022-08-03T16:35:02.951Z,29.60
2022-08-03T16:37:39.664Z,29.60
2022-08-03T16:40:19.393Z,29.60
2022-08-03T16:42:47.961Z,29.70
2022-08-03T16:45:16.138Z,29.60
2022-08-03T16:47:43.982Z,29.60
2022-08-03T16:50:18.960Z,29.50
2022-08-03T16:52:49.086Z,29.50
2022-08-03T16:55:18.300Z,29.50
2022-08-03T16:58:06.097Z,29.30
2022-08-03T17:00:41.863Z,29.20
2022-08-03T17:03:12.824Z,29.30
2022-08-03T17:05:48.068Z,29.20
2022-08-03T17:08:26.449Z,29.10
2022-08-03T17:10:55.719Z,29.10
2022-08-03T17:13:27.625Z,29.00
2022-08-03T17:16:09.605Z,29.10
2022-08-03T17:18:42.272Z,29.10
2022-08-03T17:21:18.975Z,29.00
2022-08-03T17:23:55.778Z,28.90
2022-08-03T17:26:30.509Z,28.80
2022-08-03T17:29:12.674Z,28.80
2022-08-03T17:31:49.503Z,28.70
2022-08-03T17:34:18.826Z,28.70
2022-08-03T17:37:03.865Z,28.60
2022-08-03T17:40:00.452Z,28.50
2022-08-03T17:42:30.183Z,28.50
2022-08-03T17:45:02.073Z,28.40
2022-08-03T17:47:41.864Z,28.30
2022-08-03T17:50:24.779Z,28.20
2022-08-03T17:53:01.864Z,28.20
2022-08-03T17:55:56.877Z,28.20
2022-08-03T17:58:38.248Z,28.10
2022-08-03T18:02:02.007Z,28.20
2022-08-03T18:04:21.801Z,28.10
2022-08-03T18:07:00.330Z,28.00
2022-08-03T18:10:03.195Z,27.90
2022-08-03T18:12:37.035Z,27.80
2022-08-03T18:15:07.699Z,27.70
2022-08-03T18:17:55.129Z,27.60
2022-08-03T18:20:34.320Z,27.60
2022-08-03T18:23:07.258Z,27.50
2022-08-03T18:25:45.533Z,27.40
2022-08-03T18:28:23.249Z,27.40
2022-08-03T18:30:53.283Z,27.30
2022-08-03T18:34:18.637Z,27.20
2022-08-03T18:36:17.503Z,27.00
2022-08-03T18:38:46.660Z,26.90
2022-08-03T18:41:20.559Z,26.70
2022-08-03T18:44:07.940Z,26.60
2022-08-03T18:46:48.381Z,26.40
2022-08-03T18:49:29.195Z,26.20
2022-08-03T18:52:04.511Z,26.00
2022-08-03T18:54:45.749Z,25.80
2022-08-03T18:57:37.972Z,25.60
2022-08-03T19:00:14.189Z,25.40
2022-08-03T19:02:49.286Z,25.20
2022-08-03T19:05:19.915Z,25.00
2022-08-03T19:07:59.829Z,24.90
2022-08-03T19:10:32.230Z,24.80
2022-08-03T19:13:04.899Z,24.70
2022-08-03T19:15:51.275Z,24.60
2022-08-03T19:18:21.901Z,24.40
2022-08-03T19:20:53.194Z,24.30
2022-08-03T19:23:25.674Z,24.20
2022-08-03T19:25:54.279Z,24.10
2022-08-03T19:28:30.120Z,24.00
2022-08-03T19:31:06.487Z,23.90
2022-08-03T19:33:56.029Z,23.80
2022-08-03T19:36:28.574Z,23.80
2022-08-03T19:38:57.513Z,23.70
2022-08-03T19:41:31.281Z,23.60
2022-08-03T19:44:12.394Z,23.60
2022-08-03T19:46:54.140Z,23.50
2022-08-03T19:50:04.914Z,23.50
2022-08-03T19:52:20.577Z,23.50
2022-08-03T19:54:54.656Z,23.40
2022-08-03T19:57:25.319Z,23.40
2022-08-03T19:59:55.749Z,23.30
2022-08-03T20:05:15.475Z,23.20
2022-08-03T20:07:47.591Z,23.20
2022-08-03T20:10:17.515Z,23.10
2022-08-03T20:12:46.456Z,23.00
2022-08-03T20:15:18.281Z,23.00
2022-08-03T20:18:01.064Z,23.00
2022-08-03T20:20:31.746Z,23.00
2022-08-03T20:23:03.903Z,23.00
2022-08-03T20:25:48.454Z,22.90
2022-08-03T20:28:26.811Z,22.90
2022-08-03T20:30:54.942Z,22.90
2022-08-03T20:33:27.878Z,22.90
2022-08-03T20:36:13.467Z,22.90
2022-08-03T20:38:46.967Z,22.80
2022-08-03T20:41:15.978Z,22.70
2022-08-03T20:43:44.419Z,22.70
2022-08-03T20:46:32.035Z,22.70
2022-08-03T20:49:04.180Z,22.60
2022-08-03T20:51:52.690Z,22.60
2022-08-03T20:54:29.733Z,22.60
2022-08-03T20:57:00.086Z,22.50
2022-08-03T20:59:35.043Z,22.50
2022-08-03T21:02:06.803Z,22.40
2022-08-03T21:04:41.614Z,22.40
2022-08-03T21:07:22.856Z,22.40
2022-08-03T21:09:53.603Z,22.40
2022-08-03T21:12:30.985Z,22.30
2022-08-03T21:13:03.417Z,23.30
2022-08-03T21:15:03.234Z,22.30
2022-08-03T21:17:40.439Z,22.30
2022-08-03T21:20:12.773Z,22.30
2022-08-03T21:22:44.714Z,22.30
2022-08-03T21:25:16.385Z,22.40
2022-08-03T21:27:44.643Z,22.30
2022-08-03T21:30:13.327Z,22.30
2022-08-03T21:32:45.332Z,22.30
2022-08-03T21:35:16.213Z,22.30
2022-08-03T21:37:45.058Z,22.30
2022-08-03T21:40:16.900Z,22.20
2022-08-03T21:42:46.321Z,22.20
2022-08-03T21:45:17.771Z,22.20
2022-08-03T21:47:46.703Z,22.20
2022-08-03T21:50:16.662Z,22.20
2022-08-03T21:52:46.295Z,22.20
2022-08-03T21:55:20.535Z,22.10
2022-08-03T21:57:53.584Z,22.20
2022-08-03T22:00:23.347Z,22.10
2022-08-03T22:02:55.369Z,22.10
2022-08-03T22:05:42.688Z,22.20
2022-08-03T22:08:13.956Z,22.20
2022-08-03T22:10:44.264Z,22.20
2022-08-03T22:13:13.079Z,22.20
2022-08-03T22:15:41.259Z,22.10
2022-08-03T22:18:09.241Z,22.10
2022-08-03T22:20:38.550Z,22.10
2022-08-03T22:23:07.633Z,22.10
2022-08-03T22:25:37.588Z,22.10
2022-08-03T22:28:08.324Z,22.10
2022-08-03T22:30:36.864Z,22.10
2022-08-03T22:33:11.723Z,22.00
2022-08-03T22:35:48.302Z,22.00
2022-08-03T22:38:16.825Z,22.00
2022-08-03T22:40:45.954Z,21.90
2022-08-03T22:43:13.950Z,21.90
2022-08-03T22:46:10.477Z,21.80
2022-08-03T22:48:35.183Z,21.80
2022-08-03T22:51:07.225Z,21.70
2022-08-03T22:53:36.816Z,21.70
2022-08-03T22:56:05.111Z,21.60
2022-08-03T22:58:32.960Z,21.60
2022-08-03T23:01:05.414Z,21.50
2022-08-03T23:04:00.508Z,21.50
2022-08-03T23:06:27.871Z,21.60
2022-08-03T23:08:56.315Z,21.50
2022-08-03T23:11:26.299Z,21.50
2022-08-03T23:13:57.546Z,21.50
2022-08-03T23:16:29.162Z,21.50
2022-08-03T23:18:59.869Z,21.40
2022-08-03T23:22:00.119Z,21.40
2022-08-03T23:24:31.299Z,21.40
2022-08-03T23:27:00.234Z,21.40
2022-08-03T23:29:31.219Z,21.30
2022-08-03T23:31:59.487Z,21.30
2022-08-03T23:34:51.762Z,21.20
2022-08-03T23:37:21.266Z,21.20
2022-08-03T23:39:49.910Z,21.10
2022-08-03T23:42:21.323Z,21.00
2022-08-03T23:44:55.457Z,21.00
2022-08-03T23:47:23.884Z,20.90
2022-08-03T23:49:52.072Z,20.90
2022-08-03T23:52:30.003Z,20.90
2022-08-03T23:55:14.159Z,20.80
2022-08-03T23:57:53.263Z,20.80
